sensor_id;sensor_type;location;lat;lon;timestamp;pressure;altitude;pressure_sealevel;temperature;humidity
8140;BME280;4111;50.972;7.072;2023-08-31T00:02:23;100390.25;;;13.98;100.00
8140;BME280;4111;50.972;7.072;2023-08-31T00:04:53;100390.78;;;13.95;100.00
8140;BME280;4111;50.972;7.072;2023-08-31T00:07:21;100388.59;;;13.97;100.00
8140;BME280;4111;50.972;7.072;2023-08-31T00:09:47;100391.88;;;13.99;100.00
8140;BME280;4111;50.972;7.072;2023-08-31T00:12:14;100397.34;;;13.99;100.00
8140;BME280;4111;50.972;7.072;2023-08-31T00:14:40;100397.59;;;14.03;100.00
8140;BME280;4111;50.972;7.072;2023-08-31T00:17:06;100397.38;;;13.94;100.00
8140;BME280;4111;50.972;7.072;2023-08-31T00:19:33;100395.72;;;13.93;100.00
8140;BME280;4111;50.972;7.072;2023-08-31T00:22:00;100390.78;;;13.95;100.00
8140;BME280;4111;50.972;7.072;2023-08-31T00:24:26;100395.72;;;13.98;100.00
8140;BME280;4111;50.972;7.072;2023-08-31T00:26:57;100396.81;;;13.92;100.00
8140;BME280;4111;50.972;7.072;2023-08-31T00:29:24;100384.56;;;13.84;100.00
8140;BME280;4111;50.972;7.072;2023-08-31T00:31:51;100379.38;;;13.83;100.00
8140;BME280;4111;50.972;7.072;2023-08-31T00:34:19;100389.72;;;13.91;100.00
8140;BME280;4111;50.972;7.072;2023-08-31T00:36:46;100387.78;;;13.92;100.00
8140;BME280;4111;50.972;7.072;2023-08-31T00:39:12;100381.25;;;13.93;100.00
8140;BME280;4111;50.972;7.072;2023-08-31T00:41:39;100383.72;;;13.89;100.00
8140;BME280;4111;50.972;7.072;2023-08-31T00:44:05;100390.25;;;13.93;100.00
8140;BME280;4111;50.972;7.072;2023-08-31T00:46:32;100387.78;;;13.92;100.00
8140;BME280;4111;50.972;7.072;2023-08-31T00:48:59;100388.59;;;13.97;100.00
8140;BME280;4111;50.972;7.072;2023-08-31T00:51:25;100390.25;;;13.93;100.00
8140;BME280;4111;50.972;7.072;2023-08-31T00:53:52;100397.34;;;13.99;100.00
8140;BME280;4111;50.972;7.072;2023-08-31T00:56:21;100401.16;;;13.98;100.00
8140;BME280;4111;50.972;7.072;2023-08-31T00:58:48;100395.19;;;13.96;100.00
8140;BME280;4111;50.972;7.072;2023-08-31T01:01:24;100392.97;;;13.98;100.00
8140;BME280;4111;50.972;7.072;2023-08-31T01:04:00;100386.69;;;13.98;100.00
8140;BME280;4111;50.972;7.072;2023-08-31T01:06:35;100393.25;;;13.97;100.00
8140;BME280;4111;50.972;7.072;2023-08-31T01:09:12;100400.34;;;13.98;100.00
8140;BME280;4111;50.972;7.072;2023-08-31T01:11:57;100398.44;;;13.93;100.00
8140;BME280;4111;50.972;7.072;2023-08-31T01:14:32;100394.38;;;13.91;100.00
8140;BME280;4111;50.972;7.072;2023-08-31T01:17:01;100395.19;;;13.91;100.00
8140;BME280;4111;50.972;7.072;2023-08-31T01:19:48;100397.91;;;13.96;100.00
8140;BME280;4111;50.972;7.072;2023-08-31T01:22:24;100397.91;;;13.96;100.00
8140;BME280;4111;50.972;7.072;2023-08-31T01:24:53;100390.53;;;13.97;100.00
8140;BME280;4111;50.972;7.072;2023-08-31T01:27:21;100400.88;;;14.00;100.00
8140;BME280;4111;50.972;7.072;2023-08-31T01:29:47;100397.59;;;13.98;100.00
8140;BME280;4111;50.972;7.072;2023-08-31T01:32:14;100395.72;;;13.98;100.00
8140;BME280;4111;50.972;7.072;2023-08-31T01:34:40;100400.63;;;13.91;100.00
8140;BME280;4111;50.972;7.072;2023-08-31T01:37:20;100401.19;;;13.88;100.00
8140;BME280;4111;50.972;7.072;2023-08-31T01:39:55;100398.97;;;13.90;100.00
8140;BME280;4111;50.972;7.072;2023-08-31T01:42:26;100402.28;;;13.92;100.00
8140;BME280;4111;50.972;7.072;2023-08-31T01:44:55;100402.28;;;13.92;100.00
8140;BME280;4111;50.972;7.072;2023-08-31T01:47:23;100405.56;;;13.89;100.00
8140;BME280;4111;50.972;7.072;2023-08-31T01:49:50;100412.09;;;13.88;100.00
8140;BME280;4111;50.972;7.072;2023-08-31T01:52:17;100405.56;;;13.84;100.00
8140;BME280;4111;50.972;7.072;2023-08-31T01:54:43;100421.41;;;13.77;100.00
8140;BME280;4111;50.972;7.072;2023-08-31T01:57:09;100418.16;;;13.75;100.00
8140;BME280;4111;50.972;7.072;2023-08-31T01:59:36;100422.78;;;13.69;100.00
8140;BME280;4111;50.972;7.072;2023-08-31T02:02:02;100427.97;;;13.60;100.00
8140;BME280;4111;50.972;7.072;2023-08-31T02:04:30;100424.16;;;13.61;100.00
8140;BME280;4111;50.972;7.072;2023-08-31T02:06:57;100423.59;;;13.64;100.00
8140;BME280;4111;50.972;7.072;2023-08-31T02:09:23;100422.50;;;13.60;100.00
8140;BME280;4111;50.972;7.072;2023-08-31T02:11:49;100421.44;;;13.51;100.00
8140;BME280;4111;50.972;7.072;2023-08-31T02:14:16;100418.44;;;13.47;100.00
8140;BME280;4111;50.972;7.072;2023-08-31T02:16:43;100418.97;;;13.44;100.00
8140;BME280;4111;50.972;7.072;2023-08-31T02:19:09;100425.25;;;13.40;100.00
8140;BME280;4111;50.972;7.072;2023-08-31T02:21:36;100425.81;;;13.42;100.00
8140;BME280;4111;50.972;7.072;2023-08-31T02:24:02;100424.72;;;13.38;100.00
8140;BME280;4111;50.972;7.072;2023-08-31T02:26:29;100426.06;;;13.30;100.00
8140;BME280;4111;50.972;7.072;2023-08-31T02:28:55;100429.88;;;13.24;100.00
8140;BME280;4111;50.972;7.072;2023-08-31T02:31:22;100423.59;;;13.23;100.00
8140;BME280;4111;50.972;7.072;2023-08-31T02:33:48;100428.78;;;13.20;100.00
8140;BME280;4111;50.972;7.072;2023-08-31T02:36:16;100432.31;;;13.20;100.00
8140;BME280;4111;50.972;7.072;2023-08-31T02:38:43;100433.13;;;13.16;100.00
8140;BME280;4111;50.972;7.072;2023-08-31T02:41:09;100426.31;;;13.18;100.00
8140;BME280;4111;50.972;7.072;2023-08-31T02:43:35;100432.31;;;13.20;100.00
8140;BME280;4111;50.972;7.072;2023-08-31T02:46:03;100431.47;;;13.15;100.00
8140;BME280;4111;50.972;7.072;2023-08-31T02:48:30;100430.13;;;13.12;100.00
8140;BME280;4111;50.972;7.072;2023-08-31T02:50:57;100424.41;;;13.14;100.00
8140;BME280;4111;50.972;7.072;2023-08-31T02:53:27;100428.47;;;13.11;100.00
8140;BME280;4111;50.972;7.072;2023-08-31T02:55:54;100429.28;;;13.06;100.00
8140;BME280;4111;50.972;7.072;2023-08-31T02:58:20;100427.94;;;13.09;100.00
8140;BME280;4111;50.972;7.072;2023-08-31T03:00:46;100442.38;;;13.15;100.00
8140;BME280;4111;50.972;7.072;2023-08-31T03:03:15;100441.84;;;13.13;100.00
8140;BME280;4111;50.972;7.072;2023-08-31T03:05:42;100433.94;;;13.06;100.00
8140;BME280;4111;50.972;7.072;2023-08-31T03:08:09;100432.28;;;13.05;100.00
8140;BME280;4111;50.972;7.072;2023-08-31T03:10:36;100436.66;;;13.01;100.00
8140;BME280;4111;50.972;7.072;2023-08-31T03:13:03;100432.59;;;13.03;100.00
8140;BME280;4111;50.972;7.072;2023-08-31T03:15:32;100431.19;;;13.11;100.00
8140;BME280;4111;50.972;7.072;2023-08-31T03:18:00;100427.69;;;13.16;100.00
8140;BME280;4111;50.972;7.072;2023-08-31T03:20:26;100429.88;;;13.14;100.00
8140;BME280;4111;50.972;7.072;2023-08-31T03:22:53;100431.22;;;13.06;100.00
8140;BME280;4111;50.972;7.072;2023-08-31T03:25:19;100429.84;;;13.03;100.00
8140;BME280;4111;50.972;7.072;2023-08-31T03:27:46;100430.09;;;13.07;100.00
8140;BME280;4111;50.972;7.072;2023-08-31T03:30:12;100431.75;;;13.08;100.00
8140;BME280;4111;50.972;7.072;2023-08-31T03:32:39;100428.22;;;13.13;100.00
8140;BME280;4111;50.972;7.072;2023-08-31T03:35:06;100423.03;;;13.11;100.00
8140;BME280;4111;50.972;7.072;2023-08-31T03:37:33;100427.94;;;13.09;100.00
8140;BME280;4111;50.972;7.072;2023-08-31T03:40:00;100433.41;;;13.04;100.00
8140;BME280;4111;50.972;7.072;2023-08-31T03:42:26;100437.19;;;12.98;100.00
8140;BME280;4111;50.972;7.072;2023-08-31T03:44:52;100437.75;;;13.00;100.00
8140;BME280;4111;50.972;7.072;2023-08-31T03:47:19;100438.84;;;12.94;100.00
8140;BME280;4111;50.972;7.072;2023-08-31T03:49:45;100445.66;;;13.01;100.00
8140;BME280;4111;50.972;7.072;2023-08-31T03:52:11;100446.47;;;13.07;100.00
8140;BME280;4111;50.972;7.072;2023-08-31T03:54:38;100436.13;;;13.14;100.00
8140;BME280;4111;50.972;7.072;2023-08-31T03:57:04;100445.94;;;13.20;100.00
8140;BME280;4111;50.972;7.072;2023-08-31T03:59:31;100441.06;;;13.27;100.00
8140;BME280;4111;50.972;7.072;2023-08-31T04:01:57;100444.03;;;13.16;100.00
8140;BME280;4111;50.972;7.072;2023-08-31T04:04:24;100440.25;;;13.27;100.00
8140;BME280;4111;50.972;7.072;2023-08-31T04:06:51;100455.75;;;13.26;100.00
8140;BME280;4111;50.972;7.072;2023-08-31T04:09:17;100449.25;;;13.33;100.00
8140;BME280;4111;50.972;7.072;2023-08-31T04:11:43;100445.72;;;13.37;100.00
8140;BME280;4111;50.972;7.072;2023-08-31T04:14:10;100448.72;;;13.41;100.00
8140;BME280;4111;50.972;7.072;2023-08-31T04:16:36;100449.25;;;13.38;100.00
8140;BME280;4111;50.972;7.072;2023-08-31T04:19:03;100455.53;;;13.33;100.00
8140;BME280;4111;50.972;7.072;2023-08-31T04:21:30;100444.88;;;13.37;100.00
8140;BME280;4111;50.972;7.072;2023-08-31T04:23:56;100442.72;;;13.44;100.00
8140;BME280;4111;50.972;7.072;2023-08-31T04:26:26;100446.53;;;13.43;100.00
8140;BME280;4111;50.972;7.072;2023-08-31T04:28:52;100447.91;;;13.45;100.00
8140;BME280;4111;50.972;7.072;2023-08-31T04:31:19;100453.34;;;13.45;100.00
8140;BME280;4111;50.972;7.072;2023-08-31T04:33:45;100452.53;;;13.45;100.00
8140;BME280;4111;50.972;7.072;2023-08-31T04:36:11;100460.72;;;13.50;100.00
8140;BME280;4111;50.972;7.072;2023-08-31T04:38:38;100460.19;;;13.53;100.00
8140;BME280;4111;50.972;7.072;2023-08-31T04:41:04;100468.88;;;13.50;100.00
8140;BME280;4111;50.972;7.072;2023-08-31T04:43:31;100468.34;;;13.53;100.00
8140;BME280;4111;50.972;7.072;2023-08-31T04:45:58;100475.19;;;13.61;100.00
8140;BME280;4111;50.972;7.072;2023-08-31T04:48:24;100480.34;;;13.62;100.00
8140;BME280;4111;50.972;7.072;2023-08-31T04:50:56;100481.72;;;13.60;100.00
8140;BME280;4111;50.972;7.072;2023-08-31T04:53:24;100481.72;;;13.60;100.00
8140;BME280;4111;50.972;7.072;2023-08-31T04:55:51;100472.44;;;13.61;100.00
8140;BME280;4111;50.972;7.072;2023-08-31T04:58:17;100476.53;;;13.63;100.00
8140;BME280;4111;50.972;7.072;2023-08-31T05:00:43;100486.91;;;13.66;100.00
8140;BME280;4111;50.972;7.072;2023-08-31T05:03:10;100485.81;;;13.67;100.00
8140;BME280;4111;50.972;7.072;2023-08-31T05:05:37;100488.81;;;13.71;100.00
8140;BME280;4111;50.972;7.072;2023-08-31T05:08:04;100487.44;;;13.74;100.00
8140;BME280;4111;50.972;7.072;2023-08-31T05:10:31;100490.44;;;13.72;100.00
8140;BME280;4111;50.972;7.072;2023-08-31T05:12:57;100502.72;;;13.80;100.00
8140;BME280;4111;50.972;7.072;2023-08-31T05:15:24;100503.81;;;13.79;100.00
8140;BME280;4111;50.972;7.072;2023-08-31T05:17:54;100503.25;;;13.82;100.00
8140;BME280;4111;50.972;7.072;2023-08-31T05:20:20;100514.19;;;13.92;100.00
8140;BME280;4111;50.972;7.072;2023-08-31T05:22:49;100509.50;;;13.98;100.00
8140;BME280;4111;50.972;7.072;2023-08-31T05:25:16;100516.06;;;14.12;100.00
8140;BME280;4111;50.972;7.072;2023-08-31T05:27:42;100519.03;;;14.16;100.00
8140;BME280;4111;50.972;7.072;2023-08-31T05:30:09;100516.59;;;14.14;100.00
8140;BME280;4111;50.972;7.072;2023-08-31T05:32:35;100519.31;;;14.24;100.00
8140;BME280;4111;50.972;7.072;2023-08-31T05:35:02;100529.66;;;14.38;100.00
8140;BME280;4111;50.972;7.072;2023-08-31T05:37:33;100523.94;;;14.34;100.00
8140;BME280;4111;50.972;7.072;2023-08-31T05:40:00;100529.16;;;14.20;100.00
8140;BME280;4111;50.972;7.072;2023-08-31T05:42:27;100539.81;;;14.17;100.00
8140;BME280;4111;50.972;7.072;2023-08-31T05:44:53;100539.25;;;14.09;100.00
8140;BME280;4111;50.972;7.072;2023-08-31T05:47:19;100539.56;;;14.03;100.00
8140;BME280;4111;50.972;7.072;2023-08-31T05:49:46;100534.63;;;14.05;100.00
8140;BME280;4111;50.972;7.072;2023-08-31T05:52:12;100538.19;;;13.95;100.00
8140;BME280;4111;50.972;7.072;2023-08-31T05:54:39;100542.56;;;14.01;100.00
8140;BME280;4111;50.972;7.072;2023-08-31T05:57:05;100546.38;;;14.05;100.00
8140;BME280;4111;50.972;7.072;2023-08-31T05:59:32;100543.38;;;14.07;100.00
8140;BME280;4111;50.972;7.072;2023-08-31T06:01:58;100545.28;;;14.01;100.00
8140;BME280;4111;50.972;7.072;2023-08-31T06:04:24;100548.00;;;14.06;100.00
8140;BME280;4111;50.972;7.072;2023-08-31T06:06:51;100548.00;;;14.01;100.00
8140;BME280;4111;50.972;7.072;2023-08-31T06:09:20;100549.38;;;13.99;100.00
8140;BME280;4111;50.972;7.072;2023-08-31T06:11:46;100547.47;;;14.04;100.00
8140;BME280;4111;50.972;7.072;2023-08-31T06:14:13;100553.44;;;14.12;100.00
8140;BME280;4111;50.972;7.072;2023-08-31T06:16:39;100560.53;;;14.18;100.00
8140;BME280;4111;50.972;7.072;2023-08-31T06:19:05;100561.09;;;14.25;100.00
8140;BME280;4111;50.972;7.072;2023-08-31T06:21:32;100557.25;;;14.31;100.00
8140;BME280;4111;50.972;7.072;2023-08-31T06:23:58;100567.34;;;14.41;100.00
8140;BME280;4111;50.972;7.072;2023-08-31T06:26:24;100570.34;;;14.50;100.00
8140;BME280;4111;50.972;7.072;2023-08-31T06:28:51;100576.88;;;14.59;100.00
8140;BME280;4111;50.972;7.072;2023-08-31T06:31:18;100571.91;;;14.81;100.00
8140;BME280;4111;50.972;7.072;2023-08-31T06:33:45;100572.44;;;14.83;100.00
8140;BME280;4111;50.972;7.072;2023-08-31T06:36:11;100568.06;;;14.82;100.00
8140;BME280;4111;50.972;7.072;2023-08-31T06:38:38;100577.34;;;14.92;100.00
8140;BME280;4111;50.972;7.072;2023-08-31T06:41:04;100573.22;;;14.99;100.00
8140;BME280;4111;50.972;7.072;2023-08-31T06:43:31;100576.16;;;15.08;100.00
8140;BME280;4111;50.972;7.072;2023-08-31T06:45:57;100572.59;;;15.13;100.00
8140;BME280;4111;50.972;7.072;2023-08-31T06:48:44;100578.81;;;15.23;100.00
8140;BME280;4111;50.972;7.072;2023-08-31T06:51:10;100582.84;;;15.36;100.00
8140;BME280;4111;50.972;7.072;2023-08-31T06:53:37;100577.06;;;15.43;100.00
8140;BME280;4111;50.972;7.072;2023-08-31T06:56:03;100574.03;;;15.50;100.00
8140;BME280;4111;50.972;7.072;2023-08-31T06:58:30;100575.88;;;15.59;99.70
8140;BME280;4111;50.972;7.072;2023-08-31T07:00:56;100575.31;;;15.62;99.31
8140;BME280;4111;50.972;7.072;2023-08-31T07:03:22;100566.78;;;15.74;99.20
8140;BME280;4111;50.972;7.072;2023-08-31T07:05:52;100580.13;;;15.81;99.36
8140;BME280;4111;50.972;7.072;2023-08-31T07:08:19;100585.59;;;15.81;98.74
8140;BME280;4111;50.972;7.072;2023-08-31T07:10:45;100577.41;;;15.81;98.56
8140;BME280;4111;50.972;7.072;2023-08-31T07:13:13;100586.28;;;15.97;98.53
8140;BME280;4111;50.972;7.072;2023-08-31T07:15:40;100584.34;;;16.02;97.55
8140;BME280;4111;50.972;7.072;2023-08-31T07:18:07;100588.13;;;16.06;96.04
8140;BME280;4111;50.972;7.072;2023-08-31T07:20:34;100581.59;;;16.02;94.67
8140;BME280;4111;50.972;7.072;2023-08-31T07:23:00;100587.09;;;15.97;94.32
8140;BME280;4111;50.972;7.072;2023-08-31T07:25:27;100586.47;;;16.11;95.25
8140;BME280;4111;50.972;7.072;2023-08-31T07:27:54;100589.28;;;16.00;94.46
8140;BME280;4111;50.972;7.072;2023-08-31T07:30:21;100592.03;;;16.00;92.76
8140;BME280;4111;50.972;7.072;2023-08-31T07:32:47;100597.84;;;16.23;92.71
8140;BME280;4111;50.972;7.072;2023-08-31T07:35:14;100590.13;;;16.30;92.71
8140;BME280;4111;50.972;7.072;2023-08-31T07:37:40;100596.63;;;16.39;92.64
8140;BME280;4111;50.972;7.072;2023-08-31T07:40:08;100601.94;;;16.55;92.74
8140;BME280;4111;50.972;7.072;2023-08-31T07:42:36;100596.59;;;16.69;92.06
8140;BME280;4111;50.972;7.072;2023-08-31T07:45:02;100600.38;;;16.73;90.85
8140;BME280;4111;50.972;7.072;2023-08-31T07:47:29;100609.41;;;16.73;90.34
8140;BME280;4111;50.972;7.072;2023-08-31T07:49:58;100611.41;;;16.68;89.91
8140;BME280;4111;50.972;7.072;2023-08-31T07:52:24;100609.88;;;16.80;90.17
8140;BME280;4111;50.972;7.072;2023-08-31T07:54:51;100615.06;;;16.87;91.19
8140;BME280;4111;50.972;7.072;2023-08-31T07:57:17;100615.84;;;16.88;90.41
8140;BME280;4111;50.972;7.072;2023-08-31T07:59:43;100623.00;;;16.89;90.51
8140;BME280;4111;50.972;7.072;2023-08-31T08:02:10;100619.00;;;17.00;89.70
8140;BME280;4111;50.972;7.072;2023-08-31T08:04:36;100612.47;;;16.96;87.55
8140;BME280;4111;50.972;7.072;2023-08-31T08:07:03;100621.94;;;17.09;85.93
8140;BME280;4111;50.972;7.072;2023-08-31T08:09:30;100623.00;;;17.32;86.53
8140;BME280;4111;50.972;7.072;2023-08-31T08:11:56;100614.69;;;17.37;85.01
8140;BME280;4111;50.972;7.072;2023-08-31T08:14:22;100623.53;;;17.34;85.10
8140;BME280;4111;50.972;7.072;2023-08-31T08:16:49;100623.31;;;17.30;84.25
8140;BME280;4111;50.972;7.072;2023-08-31T08:19:21;100627.38;;;17.33;84.15
8140;BME280;4111;50.972;7.072;2023-08-31T08:21:48;100622.59;;;17.19;82.86
8140;BME280;4111;50.972;7.072;2023-08-31T08:24:15;100625.28;;;17.24;82.94
8140;BME280;4111;50.972;7.072;2023-08-31T08:26:41;100630.13;;;17.33;84.20
8140;BME280;4111;50.972;7.072;2023-08-31T08:29:08;100633.72;;;17.52;84.71
8140;BME280;4111;50.972;7.072;2023-08-31T08:31:34;100629.63;;;17.69;84.23
8140;BME280;4111;50.972;7.072;2023-08-31T08:34:01;100629.09;;;18.04;84.19
8140;BME280;4111;50.972;7.072;2023-08-31T08:36:27;100633.66;;;18.28;81.95
8140;BME280;4111;50.972;7.072;2023-08-31T08:38:53;100631.00;;;18.23;80.35
8140;BME280;4111;50.972;7.072;2023-08-31T08:41:23;100633.59;;;18.33;79.96
8140;BME280;4111;50.972;7.072;2023-08-31T08:43:51;100631.16;;;18.46;78.64
8140;BME280;4111;50.972;7.072;2023-08-31T08:46:18;100628.13;;;18.61;77.82
8140;BME280;4111;50.972;7.072;2023-08-31T08:48:47;100630.19;;;18.69;76.99
8140;BME280;4111;50.972;7.072;2023-08-31T08:51:13;100631.53;;;18.86;77.42
8140;BME280;4111;50.972;7.072;2023-08-31T08:53:43;100642.53;;;18.86;76.88
8140;BME280;4111;50.972;7.072;2023-08-31T08:56:10;100632.28;;;18.45;75.99
8140;BME280;4111;50.972;7.072;2023-08-31T08:58:36;100634.94;;;18.50;77.46
8140;BME280;4111;50.972;7.072;2023-08-31T09:01:04;100635.09;;;18.72;76.98
8140;BME280;4111;50.972;7.072;2023-08-31T09:03:31;100631.41;;;18.63;76.32
8140;BME280;4111;50.972;7.072;2023-08-31T09:05:59;100643.69;;;18.52;77.44
8140;BME280;4111;50.972;7.072;2023-08-31T09:08:27;100643.00;;;18.60;76.78
8140;BME280;4111;50.972;7.072;2023-08-31T09:10:56;100642.00;;;18.70;75.93
8140;BME280;4111;50.972;7.072;2023-08-31T09:13:27;100642.94;;;18.79;75.18
8140;BME280;4111;50.972;7.072;2023-08-31T09:15:55;100640.81;;;18.90;74.51
8140;BME280;4111;50.972;7.072;2023-08-31T09:18:27;100639.63;;;18.96;74.24
8140;BME280;4111;50.972;7.072;2023-08-31T09:20:55;100636.97;;;18.91;73.29
8140;BME280;4111;50.972;7.072;2023-08-31T09:23:25;100636.31;;;18.66;72.75
8140;BME280;4111;50.972;7.072;2023-08-31T09:25:53;100633.66;;;18.75;72.75
8140;BME280;4111;50.972;7.072;2023-08-31T09:28:22;100640.22;;;18.93;72.69
8140;BME280;4111;50.972;7.072;2023-08-31T09:30:50;100638.09;;;19.17;73.48
8140;BME280;4111;50.972;7.072;2023-08-31T09:33:19;100646.13;;;19.28;72.93
8140;BME280;4111;50.972;7.072;2023-08-31T09:35:51;100642.34;;;19.37;72.14
8140;BME280;4111;50.972;7.072;2023-08-31T09:38:18;100643.03;;;19.29;70.66
8140;BME280;4111;50.972;7.072;2023-08-31T09:40:45;100652.22;;;19.25;71.64
8140;BME280;4111;50.972;7.072;2023-08-31T09:43:12;100645.94;;;19.10;70.75
8140;BME280;4111;50.972;7.072;2023-08-31T09:45:44;100642.66;;;18.94;70.34
8140;BME280;4111;50.972;7.072;2023-08-31T09:48:13;100648.47;;;18.93;70.87
8140;BME280;4111;50.972;7.072;2023-08-31T09:50:40;100646.53;;;18.93;70.91
8140;BME280;4111;50.972;7.072;2023-08-31T09:53:10;100647.88;;;18.82;70.68
8140;BME280;4111;50.972;7.072;2023-08-31T09:55:39;100647.34;;;18.80;71.22
8140;BME280;4111;50.972;7.072;2023-08-31T09:58:07;100650.16;;;18.75;70.60
8140;BME280;4111;50.972;7.072;2023-08-31T10:00:42;100652.94;;;18.89;70.21
8140;BME280;4111;50.972;7.072;2023-08-31T10:03:10;100654.91;;;18.88;70.12
8140;BME280;4111;50.972;7.072;2023-08-31T10:05:46;100652.66;;;19.04;71.07
8140;BME280;4111;50.972;7.072;2023-08-31T10:08:14;100646.53;;;19.07;70.49
8140;BME280;4111;50.972;7.072;2023-08-31T10:10:42;100654.47;;;19.22;70.03
8140;BME280;4111;50.972;7.072;2023-08-31T10:13:09;100651.00;;;19.31;70.16
8140;BME280;4111;50.972;7.072;2023-08-31T10:15:37;100642.22;;;19.42;70.05
8140;BME280;4111;50.972;7.072;2023-08-31T10:18:06;100652.41;;;19.42;70.25
8140;BME280;4111;50.972;7.072;2023-08-31T10:20:33;100651.13;;;19.26;68.23
8140;BME280;4111;50.972;7.072;2023-08-31T10:23:07;100652.38;;;19.06;67.19
8140;BME280;4111;50.972;7.072;2023-08-31T10:28:19;100652.25;;;18.97;66.30
8140;BME280;4111;50.972;7.072;2023-08-31T10:33:34;100658.16;;;19.04;65.89
8140;BME280;4111;50.972;7.072;2023-08-31T10:36:01;100651.13;;;18.98;64.67
8140;BME280;4111;50.972;7.072;2023-08-31T10:38:29;100649.50;;;19.11;64.89
8140;BME280;4111;50.972;7.072;2023-08-31T10:43:56;100654.06;;;19.15;66.06
8140;BME280;4111;50.972;7.072;2023-08-31T10:49:14;100664.38;;;19.24;66.19
8140;BME280;4111;50.972;7.072;2023-08-31T10:51:41;100660.59;;;19.33;64.89
8140;BME280;4111;50.972;7.072;2023-08-31T10:59:54;100662.59;;;19.55;63.54
8140;BME280;4111;50.972;7.072;2023-08-31T11:02:34;100653.72;;;19.45;62.98
8140;BME280;4111;50.972;7.072;2023-08-31T11:05:08;100657.13;;;19.41;63.14
8140;BME280;4111;50.972;7.072;2023-08-31T11:07:36;100649.97;;;19.40;62.83
8140;BME280;4111;50.972;7.072;2023-08-31T11:10:10;100645.56;;;19.53;63.01
8140;BME280;4111;50.972;7.072;2023-08-31T11:12:42;100646.03;;;19.69;63.21
8140;BME280;4111;50.972;7.072;2023-08-31T11:15:12;100647.28;;;19.77;62.57
8140;BME280;4111;50.972;7.072;2023-08-31T11:17:40;100645.53;;;19.81;62.93
8140;BME280;4111;50.972;7.072;2023-08-31T11:20:08;100640.28;;;19.93;63.04
8140;BME280;4111;50.972;7.072;2023-08-31T11:22:40;100639.53;;;20.01;63.13
8140;BME280;4111;50.972;7.072;2023-08-31T11:25:09;100642.22;;;19.93;62.42
8140;BME280;4111;50.972;7.072;2023-08-31T11:27:35;100636.13;;;19.82;61.81
8140;BME280;4111;50.972;7.072;2023-08-31T11:30:15;100629.25;;;19.93;62.41
8140;BME280;4111;50.972;7.072;2023-08-31T11:32:50;100634.66;;;19.98;62.97
8140;BME280;4111;50.972;7.072;2023-08-31T11:35:18;100626.00;;;19.91;63.48
8140;BME280;4111;50.972;7.072;2023-08-31T11:37:45;100619.28;;;19.84;63.20
8140;BME280;4111;50.972;7.072;2023-08-31T11:40:13;100628.09;;;19.72;62.98
8140;BME280;4111;50.972;7.072;2023-08-31T11:42:41;100624.41;;;19.62;63.09
8140;BME280;4111;50.972;7.072;2023-08-31T11:45:09;100621.16;;;19.60;62.98
8140;BME280;4111;50.972;7.072;2023-08-31T11:47:37;100629.31;;;19.66;63.68
8140;BME280;4111;50.972;7.072;2023-08-31T11:50:06;100624.25;;;19.59;63.99
8140;BME280;4111;50.972;7.072;2023-08-31T11:52:33;100624.34;;;19.54;63.66
8140;BME280;4111;50.972;7.072;2023-08-31T11:55:00;100624.47;;;19.49;63.85
8140;BME280;4111;50.972;7.072;2023-08-31T11:57:26;100630.41;;;19.42;64.82
8140;BME280;4111;50.972;7.072;2023-08-31T11:59:55;100653.34;;;19.37;65.77
8140;BME280;4111;50.972;7.072;2023-08-31T12:02:22;100644.47;;;19.27;66.02
8140;BME280;4111;50.972;7.072;2023-08-31T12:04:48;100647.75;;;19.15;66.38
8140;BME280;4111;50.972;7.072;2023-08-31T12:07:18;100651.00;;;19.03;66.57
8140;BME280;4111;50.972;7.072;2023-08-31T12:09:45;100643.78;;;19.07;67.19
8140;BME280;4111;50.972;7.072;2023-08-31T12:12:15;100647.53;;;19.11;66.93
8140;BME280;4111;50.972;7.072;2023-08-31T12:14:43;100645.28;;;19.13;66.66
8140;BME280;4111;50.972;7.072;2023-08-31T12:17:09;100644.69;;;19.16;66.02
8140;BME280;4111;50.972;7.072;2023-08-31T12:19:40;100639.09;;;19.08;64.93
8140;BME280;4111;50.972;7.072;2023-08-31T12:22:06;100652.97;;;19.16;65.11
8140;BME280;4111;50.972;7.072;2023-08-31T12:24:40;100657.66;;;19.30;65.73
8140;BME280;4111;50.972;7.072;2023-08-31T12:27:08;100660.09;;;19.31;63.88
8140;BME280;4111;50.972;7.072;2023-08-31T12:29:35;100654.91;;;19.30;63.37
8140;BME280;4111;50.972;7.072;2023-08-31T12:32:02;100647.53;;;19.39;64.42
8140;BME280;4111;50.972;7.072;2023-08-31T12:34:30;100651.63;;;19.41;64.01
8140;BME280;4111;50.972;7.072;2023-08-31T12:36:57;100654.25;;;19.33;63.92
8140;BME280;4111;50.972;7.072;2023-08-31T12:39:27;100647.13;;;19.32;64.47
8140;BME280;4111;50.972;7.072;2023-08-31T12:41:53;100640.00;;;19.31;64.69
8140;BME280;4111;50.972;7.072;2023-08-31T12:44:22;100648.53;;;19.29;65.46
8140;BME280;4111;50.972;7.072;2023-08-31T12:46:48;100637.03;;;19.27;65.80
8140;BME280;4111;50.972;7.072;2023-08-31T12:49:15;100628.78;;;19.27;66.81
8140;BME280;4111;50.972;7.072;2023-08-31T12:51:41;100634.91;;;19.24;67.55
8140;BME280;4111;50.972;7.072;2023-08-31T12:54:08;100631.84;;;19.26;68.60
8140;BME280;4111;50.972;7.072;2023-08-31T12:56:34;100634.69;;;19.20;68.38
8140;BME280;4111;50.972;7.072;2023-08-31T12:59:01;100628.59;;;19.24;68.64
8140;BME280;4111;50.972;7.072;2023-08-31T13:01:28;100628.78;;;19.27;69.20
8140;BME280;4111;50.972;7.072;2023-08-31T13:03:54;100627.97;;;19.27;68.18
8140;BME280;4111;50.972;7.072;2023-08-31T13:06:21;100627.16;;;19.26;67.77
8140;BME280;4111;50.972;7.072;2023-08-31T13:08:47;100631.72;;;19.31;66.81
8140;BME280;4111;50.972;7.072;2023-08-31T13:11:13;100632.88;;;19.30;65.98
8140;BME280;4111;50.972;7.072;2023-08-31T13:13:40;100639.38;;;19.34;66.04
8140;BME280;4111;50.972;7.072;2023-08-31T13:16:07;100638.75;;;19.37;65.14
8140;BME280;4111;50.972;7.072;2023-08-31T13:18:33;100629.97;;;19.49;65.28
8140;BME280;4111;50.972;7.072;2023-08-31T13:21:00;100632.19;;;19.60;65.24
8140;BME280;4111;50.972;7.072;2023-08-31T13:23:27;100633.19;;;19.65;65.61
8140;BME280;4111;50.972;7.072;2023-08-31T13:25:53;100625.03;;;19.73;65.68